<?xml version="1.0" encoding="UTF-8" standalone="no" ?>
<gpx xmlns="http://www.topografix.com/GPX/1/1" xmlns:xsi="http://www.w3.org/2001/XMLSchema-instance" xsi:schemaLocation="http://www.topografix.com/GPX/1/1 http://www.topografix.com/GPX/1/1/gpx.xsd" version="1.1" creator="VisuGPX - https://www.visugpx.com">
  <metadata>
    <name>Pointe de la Vallaisonnay</name>
    <desc><![CDATA[Carte IGN TOP25 : 3633ET
Niveau TTD.
Départ de Laisonnay d'en Bas.]]></desc>
  </metadata>
  <trk>
    <name><![CDATA[Pointe de la Vallaisonnay]]></name>
    <extensions>
      <line xmlns="http://www.topografix.com/GPX/gpx_style/0/2">
        <color>0000FF</color>
        <width>4</width>
      </line>
    </extensions>
    <trkseg>
      <trkpt lat="45.44855" lon="6.78006">
        <ele>1569</ele>
        <time>2021-02-25T07:00:00.322Z</time>
      </trkpt>
      <trkpt lat="45.44862" lon="6.78033">
        <ele>1570</ele>
        <time>2021-02-25T07:00:28.358Z</time>
      </trkpt>
      <trkpt lat="45.44859" lon="6.78051">
        <ele>1570</ele>
        <time>2021-02-25T07:00:46.428Z</time>
      </trkpt>
      <trkpt lat="45.44847" lon="6.78077">
        <ele>1570</ele>
        <time>2021-02-25T07:01:17.949Z</time>
      </trkpt>
      <trkpt lat="45.44758" lon="6.78172">
        <ele>1573</ele>
        <time>2021-02-25T07:04:09.817Z</time>
      </trkpt>
      <trkpt lat="45.4477" lon="6.78234">
        <ele>1580</ele>
        <time>2021-02-25T07:05:53.765Z</time>
      </trkpt>
      <trkpt lat="45.44766" lon="6.78255">
        <ele>1584</ele>
        <time>2021-02-25T07:06:31.214Z</time>
      </trkpt>
      <trkpt lat="45.44756" lon="6.78262">
        <ele>1587</ele>
        <time>2021-02-25T07:06:55.459Z</time>
      </trkpt>
      <trkpt lat="45.44752" lon="6.78282">
        <ele>1591</ele>
        <time>2021-02-25T07:07:25.911Z</time>
      </trkpt>
      <trkpt lat="45.44697" lon="6.78326">
        <ele>1599</ele>
        <time>2021-02-25T07:09:04.387Z</time>
      </trkpt>
      <trkpt lat="45.44684" lon="6.78341">
        <ele>1598</ele>
        <time>2021-02-25T07:09:29.733Z</time>
      </trkpt>
      <trkpt lat="45.44658" lon="6.78353">
        <ele>1598</ele>
        <time>2021-02-25T07:10:15.200Z</time>
      </trkpt>
      <trkpt lat="45.44623" lon="6.78404">
        <ele>1606</ele>
        <time>2021-02-25T07:12:53.641Z</time>
      </trkpt>
      <trkpt lat="45.44625" lon="6.7842">
        <ele>1610</ele>
        <time>2021-02-25T07:13:31.259Z</time>
      </trkpt>
      <trkpt lat="45.44618" lon="6.78478">
        <ele>1627</ele>
        <time>2021-02-25T07:15:25.045Z</time>
      </trkpt>
      <trkpt lat="45.44525" lon="6.7852">
        <ele>1644</ele>
        <time>2021-02-25T07:18:28.680Z</time>
      </trkpt>
      <trkpt lat="45.4448" lon="6.78519">
        <ele>1646</ele>
        <time>2021-02-25T07:19:37.573Z</time>
      </trkpt>
      <trkpt lat="45.44443" lon="6.78539">
        <ele>1649</ele>
        <time>2021-02-25T07:20:39.068Z</time>
      </trkpt>
      <trkpt lat="45.44376" lon="6.78562">
        <ele>1653</ele>
        <time>2021-02-25T07:22:21.647Z</time>
      </trkpt>
      <trkpt lat="45.44314" lon="6.78598">
        <ele>1655</ele>
        <time>2021-02-25T07:24:02.836Z</time>
      </trkpt>
      <trkpt lat="45.44269" lon="6.78641">
        <ele>1659</ele>
        <time>2021-02-25T07:25:34.327Z</time>
      </trkpt>
      <trkpt lat="45.44223" lon="6.78709">
        <ele>1668</ele>
        <time>2021-02-25T07:27:48.842Z</time>
      </trkpt>
      <trkpt lat="45.44153" lon="6.7879">
        <ele>1683</ele>
        <time>2021-02-25T07:30:25.493Z</time>
      </trkpt>
      <trkpt lat="45.44027" lon="6.78854">
        <ele>1693</ele>
        <time>2021-02-25T07:33:46.536Z</time>
      </trkpt>
      <trkpt lat="45.43954" lon="6.78912">
        <ele>1694</ele>
        <time>2021-02-25T07:35:53.803Z</time>
      </trkpt>
      <trkpt lat="45.43898" lon="6.78999">
        <ele>1703</ele>
        <time>2021-02-25T07:38:20.071Z</time>
      </trkpt>
      <trkpt lat="45.43866" lon="6.79062">
        <ele>1710</ele>
        <time>2021-02-25T07:40:44.768Z</time>
      </trkpt>
      <trkpt lat="45.43876" lon="6.79063">
        <ele>1713</ele>
        <time>2021-02-25T07:41:10.883Z</time>
      </trkpt>
      <trkpt lat="45.43875" lon="6.79077">
        <ele>1715</ele>
        <time>2021-02-25T07:41:37.303Z</time>
      </trkpt>
      <trkpt lat="45.43896" lon="6.79119">
        <ele>1729</ele>
        <time>2021-02-25T07:44:19.135Z</time>
      </trkpt>
      <trkpt lat="45.43908" lon="6.79161">
        <ele>1742</ele>
        <time>2021-02-25T07:46:24.999Z</time>
      </trkpt>
      <trkpt lat="45.43905" lon="6.79176">
        <ele>1746</ele>
        <time>2021-02-25T07:47:07.302Z</time>
      </trkpt>
      <trkpt lat="45.43911" lon="6.79178">
        <ele>1748</ele>
        <time>2021-02-25T07:47:32.177Z</time>
      </trkpt>
      <trkpt lat="45.43937" lon="6.79141">
        <ele>1759</ele>
        <time>2021-02-25T07:49:30.052Z</time>
      </trkpt>
      <trkpt lat="45.43936" lon="6.79173">
        <ele>1765</ele>
        <time>2021-02-25T07:50:30.367Z</time>
      </trkpt>
      <trkpt lat="45.4393" lon="6.79197">
        <ele>1769</ele>
        <time>2021-02-25T07:51:16.992Z</time>
      </trkpt>
      <trkpt lat="45.43939" lon="6.79192">
        <ele>1771</ele>
        <time>2021-02-25T07:51:44.219Z</time>
      </trkpt>
      <trkpt lat="45.43938" lon="6.79204">
        <ele>1773</ele>
        <time>2021-02-25T07:52:05.449Z</time>
      </trkpt>
      <trkpt lat="45.43943" lon="6.79207">
        <ele>1774</ele>
        <time>2021-02-25T07:52:20.421Z</time>
      </trkpt>
      <trkpt lat="45.43929" lon="6.79223">
        <ele>1779</ele>
        <time>2021-02-25T07:53:09.451Z</time>
      </trkpt>
      <trkpt lat="45.43914" lon="6.79214">
        <ele>1783</ele>
        <time>2021-02-25T07:53:54.728Z</time>
      </trkpt>
      <trkpt lat="45.43891" lon="6.79243">
        <ele>1790</ele>
        <time>2021-02-25T07:55:15.829Z</time>
      </trkpt>
      <trkpt lat="45.4387" lon="6.79248">
        <ele>1795</ele>
        <time>2021-02-25T07:56:12.903Z</time>
      </trkpt>
      <trkpt lat="45.43842" lon="6.79291">
        <ele>1805</ele>
        <time>2021-02-25T07:58:00.669Z</time>
      </trkpt>
      <trkpt lat="45.43853" lon="6.79295">
        <ele>1807</ele>
        <time>2021-02-25T07:58:30.428Z</time>
      </trkpt>
      <trkpt lat="45.43846" lon="6.79308">
        <ele>1810</ele>
        <time>2021-02-25T07:59:01.940Z</time>
      </trkpt>
      <trkpt lat="45.43833" lon="6.79316">
        <ele>1813</ele>
        <time>2021-02-25T07:59:39.507Z</time>
      </trkpt>
      <trkpt lat="45.4382" lon="6.79355">
        <ele>1821</ele>
        <time>2021-02-25T08:01:22.538Z</time>
      </trkpt>
      <trkpt lat="45.43791" lon="6.79377">
        <ele>1832</ele>
        <time>2021-02-25T08:03:18.667Z</time>
      </trkpt>
      <trkpt lat="45.43763" lon="6.79413">
        <ele>1843</ele>
        <time>2021-02-25T08:05:11.842Z</time>
      </trkpt>
      <trkpt lat="45.43766" lon="6.79433">
        <ele>1847</ele>
        <time>2021-02-25T08:05:48.345Z</time>
      </trkpt>
      <trkpt lat="45.43761" lon="6.79439">
        <ele>1848</ele>
        <time>2021-02-25T08:06:05.171Z</time>
      </trkpt>
      <trkpt lat="45.43769" lon="6.79438">
        <ele>1850</ele>
        <time>2021-02-25T08:06:23.235Z</time>
      </trkpt>
      <trkpt lat="45.43744" lon="6.79466">
        <ele>1854</ele>
        <time>2021-02-25T08:07:17.074Z</time>
      </trkpt>
      <trkpt lat="45.43737" lon="6.79486">
        <ele>1856</ele>
        <time>2021-02-25T08:07:42.766Z</time>
      </trkpt>
      <trkpt lat="45.43732" lon="6.7949">
        <ele>1856</ele>
        <time>2021-02-25T08:07:52.465Z</time>
      </trkpt>
      <trkpt lat="45.43719" lon="6.79535">
        <ele>1859</ele>
        <time>2021-02-25T08:08:53.273Z</time>
      </trkpt>
      <trkpt lat="45.43696" lon="6.79585">
        <ele>1865</ele>
        <time>2021-02-25T08:10:11.060Z</time>
      </trkpt>
      <trkpt lat="45.43692" lon="6.79608">
        <ele>1867</ele>
        <time>2021-02-25T08:10:36.135Z</time>
      </trkpt>
      <trkpt lat="45.43673" lon="6.79613">
        <ele>1869</ele>
        <time>2021-02-25T08:11:04.426Z</time>
      </trkpt>
      <trkpt lat="45.43556" lon="6.79789">
        <ele>1873</ele>
        <time>2021-02-25T08:15:17.835Z</time>
      </trkpt>
      <trkpt lat="45.43548" lon="6.79816">
        <ele>1875</ele>
        <time>2021-02-25T08:15:47.987Z</time>
      </trkpt>
      <trkpt lat="45.4353" lon="6.79842">
        <ele>1878</ele>
        <time>2021-02-25T08:16:29.039Z</time>
      </trkpt>
      <trkpt lat="45.43522" lon="6.79865">
        <ele>1880</ele>
        <time>2021-02-25T08:16:57.106Z</time>
      </trkpt>
      <trkpt lat="45.4353" lon="6.7996">
        <ele>1884</ele>
        <time>2021-02-25T08:18:35.191Z</time>
      </trkpt>
      <trkpt lat="45.43508" lon="6.8">
        <ele>1883</ele>
        <time>2021-02-25T08:19:24.251Z</time>
      </trkpt>
      <trkpt lat="45.43477" lon="6.80093">
        <ele>1884</ele>
        <time>2021-02-25T08:21:11.590Z</time>
      </trkpt>
      <trkpt lat="45.43475" lon="6.80115">
        <ele>1885</ele>
        <time>2021-02-25T08:21:35.608Z</time>
      </trkpt>
      <trkpt lat="45.43466" lon="6.80129">
        <ele>1887</ele>
        <time>2021-02-25T08:22:02.765Z</time>
      </trkpt>
      <trkpt lat="45.43472" lon="6.80149">
        <ele>1890</ele>
        <time>2021-02-25T08:22:37.390Z</time>
      </trkpt>
      <trkpt lat="45.43459" lon="6.80189">
        <ele>1896</ele>
        <time>2021-02-25T08:23:42.038Z</time>
      </trkpt>
      <trkpt lat="45.43444" lon="6.80265">
        <ele>1904</ele>
        <time>2021-02-25T08:25:18.791Z</time>
      </trkpt>
      <trkpt lat="45.43418" lon="6.80291">
        <ele>1906</ele>
        <time>2021-02-25T08:26:08.924Z</time>
      </trkpt>
      <trkpt lat="45.43385" lon="6.80371">
        <ele>1911</ele>
        <time>2021-02-25T08:27:52.501Z</time>
      </trkpt>
      <trkpt lat="45.43388" lon="6.80407">
        <ele>1914</ele>
        <time>2021-02-25T08:28:38.958Z</time>
      </trkpt>
      <trkpt lat="45.43379" lon="6.80463">
        <ele>1919</ele>
        <time>2021-02-25T08:29:50.462Z</time>
      </trkpt>
      <trkpt lat="45.43393" lon="6.80497">
        <ele>1922</ele>
        <time>2021-02-25T08:30:40.280Z</time>
      </trkpt>
      <trkpt lat="45.43365" lon="6.80589">
        <ele>1931</ele>
        <time>2021-02-25T08:32:45.306Z</time>
      </trkpt>
      <trkpt lat="45.43368" lon="6.80612">
        <ele>1932</ele>
        <time>2021-02-25T08:33:13.694Z</time>
      </trkpt>
      <trkpt lat="45.43361" lon="6.80644">
        <ele>1935</ele>
        <time>2021-02-25T08:33:55.695Z</time>
      </trkpt>
      <trkpt lat="45.43354" lon="6.80706">
        <ele>1940</ele>
        <time>2021-02-25T08:35:17.627Z</time>
      </trkpt>
      <trkpt lat="45.43336" lon="6.8073">
        <ele>1944</ele>
        <time>2021-02-25T08:36:10.079Z</time>
      </trkpt>
      <trkpt lat="45.43316" lon="6.80776">
        <ele>1950</ele>
        <time>2021-02-25T08:37:35.568Z</time>
      </trkpt>
      <trkpt lat="45.43297" lon="6.80909">
        <ele>1969</ele>
        <time>2021-02-25T08:41:11.048Z</time>
      </trkpt>
      <trkpt lat="45.43283" lon="6.80924">
        <ele>1972</ele>
        <time>2021-02-25T08:41:48.871Z</time>
      </trkpt>
      <trkpt lat="45.43272" lon="6.8095">
        <ele>1975</ele>
        <time>2021-02-25T08:42:30.222Z</time>
      </trkpt>
      <trkpt lat="45.43252" lon="6.8098">
        <ele>1979</ele>
        <time>2021-02-25T08:43:20.315Z</time>
      </trkpt>
      <trkpt lat="45.43246" lon="6.81005">
        <ele>1981</ele>
        <time>2021-02-25T08:43:51.806Z</time>
      </trkpt>
      <trkpt lat="45.43218" lon="6.81072">
        <ele>1986</ele>
        <time>2021-02-25T08:45:17.999Z</time>
      </trkpt>
      <trkpt lat="45.4322" lon="6.81086">
        <ele>1986</ele>
        <time>2021-02-25T08:45:32.748Z</time>
      </trkpt>
      <trkpt lat="45.432" lon="6.81151">
        <ele>1989</ele>
        <time>2021-02-25T08:46:51.108Z</time>
      </trkpt>
      <trkpt lat="45.43195" lon="6.81208">
        <ele>1993</ele>
        <time>2021-02-25T08:48:20.119Z</time>
      </trkpt>
      <trkpt lat="45.43205" lon="6.81303">
        <ele>2008</ele>
        <time>2021-02-25T08:51:12.376Z</time>
      </trkpt>
      <trkpt lat="45.43228" lon="6.81394">
        <ele>2024</ele>
        <time>2021-02-25T08:54:23.952Z</time>
      </trkpt>
      <trkpt lat="45.43264" lon="6.81441">
        <ele>2037</ele>
        <time>2021-02-25T08:57:27.077Z</time>
      </trkpt>
      <trkpt lat="45.43305" lon="6.81471">
        <ele>2056</ele>
        <time>2021-02-25T09:01:11.041Z</time>
      </trkpt>
      <trkpt lat="45.4335" lon="6.81493">
        <ele>2077</ele>
        <time>2021-02-25T09:04:43.165Z</time>
      </trkpt>
      <trkpt lat="45.43382" lon="6.81487">
        <ele>2088</ele>
        <time>2021-02-25T09:06:14.163Z</time>
      </trkpt>
      <trkpt lat="45.4344" lon="6.81446">
        <ele>2101</ele>
        <time>2021-02-25T09:08:29.566Z</time>
      </trkpt>
      <trkpt lat="45.43449" lon="6.81433">
        <ele>2103</ele>
        <time>2021-02-25T09:08:55.688Z</time>
      </trkpt>
      <trkpt lat="45.43453" lon="6.81353">
        <ele>2110</ele>
        <time>2021-02-25T09:10:32.511Z</time>
      </trkpt>
      <trkpt lat="45.4345" lon="6.81343">
        <ele>2110</ele>
        <time>2021-02-25T09:10:45.903Z</time>
      </trkpt>
      <trkpt lat="45.43455" lon="6.81263">
        <ele>2116</ele>
        <time>2021-02-25T09:12:21.059Z</time>
      </trkpt>
      <trkpt lat="45.4344" lon="6.81172">
        <ele>2123</ele>
        <time>2021-02-25T09:14:19.162Z</time>
      </trkpt>
      <trkpt lat="45.43451" lon="6.81114">
        <ele>2129</ele>
        <time>2021-02-25T09:15:44.060Z</time>
      </trkpt>
      <trkpt lat="45.4345" lon="6.81063">
        <ele>2135</ele>
        <time>2021-02-25T09:16:53.728Z</time>
      </trkpt>
      <trkpt lat="45.43458" lon="6.81036">
        <ele>2137</ele>
        <time>2021-02-25T09:17:32.004Z</time>
      </trkpt>
      <trkpt lat="45.43477" lon="6.81021">
        <ele>2140</ele>
        <time>2021-02-25T09:18:11.478Z</time>
      </trkpt>
      <trkpt lat="45.43504" lon="6.81022">
        <ele>2143</ele>
        <time>2021-02-25T09:19:02.392Z</time>
      </trkpt>
      <trkpt lat="45.43542" lon="6.81069">
        <ele>2151</ele>
        <time>2021-02-25T09:21:06.926Z</time>
      </trkpt>
      <trkpt lat="45.43572" lon="6.81122">
        <ele>2164</ele>
        <time>2021-02-25T09:23:52.404Z</time>
      </trkpt>
      <trkpt lat="45.43596" lon="6.81184">
        <ele>2181</ele>
        <time>2021-02-25T09:26:50.035Z</time>
      </trkpt>
      <trkpt lat="45.43605" lon="6.81237">
        <ele>2192</ele>
        <time>2021-02-25T09:28:35.138Z</time>
      </trkpt>
      <trkpt lat="45.43605" lon="6.81281">
        <ele>2198</ele>
        <time>2021-02-25T09:29:40.246Z</time>
      </trkpt>
      <trkpt lat="45.43588" lon="6.81305">
        <ele>2201</ele>
        <time>2021-02-25T09:30:18.616Z</time>
      </trkpt>
      <trkpt lat="45.43584" lon="6.81342">
        <ele>2202</ele>
        <time>2021-02-25T09:30:56.109Z</time>
      </trkpt>
      <trkpt lat="45.43608" lon="6.81373">
        <ele>2202</ele>
        <time>2021-02-25T09:31:41.967Z</time>
      </trkpt>
      <trkpt lat="45.43629" lon="6.81428">
        <ele>2203</ele>
        <time>2021-02-25T09:32:52.493Z</time>
      </trkpt>
      <trkpt lat="45.43628" lon="6.81445">
        <ele>2204</ele>
        <time>2021-02-25T09:33:12.089Z</time>
      </trkpt>
      <trkpt lat="45.43645" lon="6.81496">
        <ele>2211</ele>
        <time>2021-02-25T09:34:47.246Z</time>
      </trkpt>
      <trkpt lat="45.43651" lon="6.81557">
        <ele>2221</ele>
        <time>2021-02-25T09:36:29.747Z</time>
      </trkpt>
      <trkpt lat="45.43679" lon="6.8159">
        <ele>2227</ele>
        <time>2021-02-25T09:37:43.042Z</time>
      </trkpt>
      <trkpt lat="45.43696" lon="6.81632">
        <ele>2232</ele>
        <time>2021-02-25T09:38:44.122Z</time>
      </trkpt>
      <trkpt lat="45.43725" lon="6.81657">
        <ele>2235</ele>
        <time>2021-02-25T09:39:38.367Z</time>
      </trkpt>
      <trkpt lat="45.43729" lon="6.81666">
        <ele>2236</ele>
        <time>2021-02-25T09:39:50.411Z</time>
      </trkpt>
      <trkpt lat="45.43726" lon="6.81704">
        <ele>2238</ele>
        <time>2021-02-25T09:40:32.683Z</time>
      </trkpt>
      <trkpt lat="45.43729" lon="6.8172">
        <ele>2238</ele>
        <time>2021-02-25T09:40:51.207Z</time>
      </trkpt>
      <trkpt lat="45.43791" lon="6.81772">
        <ele>2244</ele>
        <time>2021-02-25T09:42:46.024Z</time>
      </trkpt>
      <trkpt lat="45.43839" lon="6.81841">
        <ele>2250</ele>
        <time>2021-02-25T09:44:34.349Z</time>
      </trkpt>
      <trkpt lat="45.4385" lon="6.81849">
        <ele>2251</ele>
        <time>2021-02-25T09:44:53.771Z</time>
      </trkpt>
      <trkpt lat="45.43888" lon="6.81861">
        <ele>2254</ele>
        <time>2021-02-25T09:45:54.904Z</time>
      </trkpt>
      <trkpt lat="45.43908" lon="6.81947">
        <ele>2259</ele>
        <time>2021-02-25T09:47:35.156Z</time>
      </trkpt>
      <trkpt lat="45.43922" lon="6.8198">
        <ele>2261</ele>
        <time>2021-02-25T09:48:20.115Z</time>
      </trkpt>
      <trkpt lat="45.43934" lon="6.82056">
        <ele>2267</ele>
        <time>2021-02-25T09:49:56.194Z</time>
      </trkpt>
      <trkpt lat="45.43957" lon="6.82104">
        <ele>2272</ele>
        <time>2021-02-25T09:51:12.339Z</time>
      </trkpt>
      <trkpt lat="45.43982" lon="6.82138">
        <ele>2277</ele>
        <time>2021-02-25T09:52:12.419Z</time>
      </trkpt>
      <trkpt lat="45.43985" lon="6.82153">
        <ele>2278</ele>
        <time>2021-02-25T09:52:31.582Z</time>
      </trkpt>
      <trkpt lat="45.43981" lon="6.82189">
        <ele>2280</ele>
        <time>2021-02-25T09:53:11.949Z</time>
      </trkpt>
      <trkpt lat="45.43991" lon="6.822">
        <ele>2281</ele>
        <time>2021-02-25T09:53:30.706Z</time>
      </trkpt>
      <trkpt lat="45.44006" lon="6.8226">
        <ele>2284</ele>
        <time>2021-02-25T09:54:40.457Z</time>
      </trkpt>
      <trkpt lat="45.44048" lon="6.82363">
        <ele>2290</ele>
        <time>2021-02-25T09:56:50.148Z</time>
      </trkpt>
      <trkpt lat="45.44067" lon="6.82468">
        <ele>2295</ele>
        <time>2021-02-25T09:58:46.329Z</time>
      </trkpt>
      <trkpt lat="45.44069" lon="6.82537">
        <ele>2297</ele>
        <time>2021-02-25T09:59:58.360Z</time>
      </trkpt>
      <trkpt lat="45.44091" lon="6.82599">
        <ele>2299</ele>
        <time>2021-02-25T10:01:12.331Z</time>
      </trkpt>
      <trkpt lat="45.44116" lon="6.82638">
        <ele>2301</ele>
        <time>2021-02-25T10:02:16.358Z</time>
      </trkpt>
      <trkpt lat="45.44164" lon="6.82692">
        <ele>2310</ele>
        <time>2021-02-25T10:05:01.127Z</time>
      </trkpt>
      <trkpt lat="45.4426" lon="6.82824">
        <ele>2348</ele>
        <time>2021-02-25T10:08:27.318Z</time>
      </trkpt>
      <trkpt lat="45.44205" lon="6.82752">
        <ele>2323</ele>
        <time>2021-02-25T10:10:22.280Z</time>
      </trkpt>
      <trkpt lat="45.4432" lon="6.82906">
        <ele>2363</ele>
        <time>2021-02-25T10:16:55.764Z</time>
      </trkpt>
      <trkpt lat="45.44398" lon="6.83014">
        <ele>2382</ele>
        <time>2021-02-25T10:20:24.542Z</time>
      </trkpt>
      <trkpt lat="45.44484" lon="6.83135">
        <ele>2395</ele>
        <time>2021-02-25T10:24:12.814Z</time>
      </trkpt>
      <trkpt lat="45.4457" lon="6.83198">
        <ele>2411</ele>
        <time>2021-02-25T10:27:59.756Z</time>
      </trkpt>
      <trkpt lat="45.44655" lon="6.83224">
        <ele>2432</ele>
        <time>2021-02-25T10:33:05.380Z</time>
      </trkpt>
      <trkpt lat="45.44757" lon="6.83207">
        <ele>2470</ele>
        <time>2021-02-25T10:37:51.490Z</time>
      </trkpt>
      <trkpt lat="45.44867" lon="6.83188">
        <ele>2485</ele>
        <time>2021-02-25T10:41:52.684Z</time>
      </trkpt>
      <trkpt lat="45.45049" lon="6.83107">
        <ele>2523</ele>
        <time>2021-02-25T10:50:19.993Z</time>
      </trkpt>
      <trkpt lat="45.45144" lon="6.83079">
        <ele>2553</ele>
        <time>2021-02-25T10:55:46.656Z</time>
      </trkpt>
      <trkpt lat="45.45255" lon="6.83104">
        <ele>2586</ele>
        <time>2021-02-25T11:02:29.278Z</time>
      </trkpt>
      <trkpt lat="45.4532" lon="6.83211">
        <ele>2620</ele>
        <time>2021-02-25T11:06:51.875Z</time>
      </trkpt>
      <trkpt lat="45.45386" lon="6.83325">
        <ele>2634</ele>
        <time>2021-02-25T11:10:06.790Z</time>
      </trkpt>
      <trkpt lat="45.45441" lon="6.83433">
        <ele>2646</ele>
        <time>2021-02-25T11:12:27.802Z</time>
      </trkpt>
      <trkpt lat="45.45544" lon="6.83542">
        <ele>2645</ele>
        <time>2021-02-25T11:15:49.023Z</time>
      </trkpt>
      <trkpt lat="45.45612" lon="6.83556">
        <ele>2661</ele>
        <time>2021-02-25T11:18:48.159Z</time>
      </trkpt>
      <trkpt lat="45.4563" lon="6.83341">
        <ele>2696</ele>
        <time>2021-02-25T11:24:22.963Z</time>
      </trkpt>
      <trkpt lat="45.45672" lon="6.83241">
        <ele>2703</ele>
        <time>2021-02-25T11:26:15.752Z</time>
      </trkpt>
      <trkpt lat="45.45728" lon="6.83192">
        <ele>2694</ele>
        <time>2021-02-25T11:27:47.693Z</time>
      </trkpt>
      <trkpt lat="45.45777" lon="6.83149">
        <ele>2696</ele>
        <time>2021-02-25T11:30:05.025Z</time>
      </trkpt>
      <trkpt lat="45.45808" lon="6.83031">
        <ele>2724</ele>
        <time>2021-02-25T11:34:15.469Z</time>
      </trkpt>
      <trkpt lat="45.4584" lon="6.82968">
        <ele>2732</ele>
        <time>2021-02-25T11:36:18.914Z</time>
      </trkpt>
      <trkpt lat="45.4591" lon="6.82939">
        <ele>2748</ele>
        <time>2021-02-25T11:38:55.266Z</time>
      </trkpt>
      <trkpt lat="45.45942" lon="6.82937">
        <ele>2750</ele>
        <time>2021-02-25T11:39:39.873Z</time>
      </trkpt>
      <trkpt lat="45.45976" lon="6.82924">
        <ele>2748</ele>
        <time>2021-02-25T11:40:34.367Z</time>
      </trkpt>
      <trkpt lat="45.46032" lon="6.82863">
        <ele>2758</ele>
        <time>2021-02-25T11:45:07.372Z</time>
      </trkpt>
      <trkpt lat="45.46039" lon="6.82782">
        <ele>2792</ele>
        <time>2021-02-25T11:50:49.622Z</time>
      </trkpt>
      <trkpt lat="45.46022" lon="6.82682">
        <ele>2827</ele>
        <time>2021-02-25T11:56:46.856Z</time>
      </trkpt>
      <trkpt lat="45.46011" lon="6.82669">
        <ele>2832</ele>
        <time>2021-02-25T11:57:56.397Z</time>
      </trkpt>
      <trkpt lat="45.45989" lon="6.8266">
        <ele>2840</ele>
        <time>2021-02-25T11:59:27.718Z</time>
      </trkpt>
      <trkpt lat="45.45971" lon="6.8262">
        <ele>2852</ele>
        <time>2021-02-25T12:01:54.575Z</time>
      </trkpt>
      <trkpt lat="45.45966" lon="6.82573">
        <ele>2866</ele>
        <time>2021-02-25T12:04:50.778Z</time>
      </trkpt>
      <trkpt lat="45.45952" lon="6.82534">
        <ele>2882</ele>
        <time>2021-02-25T12:08:19.562Z</time>
      </trkpt>
      <trkpt lat="45.45949" lon="6.82464">
        <ele>2915</ele>
        <time>2021-02-25T12:14:29.567Z</time>
      </trkpt>
      <trkpt lat="45.45931" lon="6.82411">
        <ele>2942</ele>
        <time>2021-02-25T12:18:21.192Z</time>
      </trkpt>
      <trkpt lat="45.45951" lon="6.82329">
        <ele>2966</ele>
        <time>2021-02-25T12:21:58.855Z</time>
      </trkpt>
      <trkpt lat="45.45953" lon="6.82268">
        <ele>2975</ele>
        <time>2021-02-25T12:23:08.042Z</time>
      </trkpt>
      <trkpt lat="45.45896" lon="6.82113">
        <ele>2981</ele>
        <time>2021-02-25T12:25:57.358Z</time>
      </trkpt>
      <trkpt lat="45.4586" lon="6.82032">
        <ele>2971</ele>
        <time>2021-02-25T12:27:31.515Z</time>
      </trkpt>
      <trkpt lat="45.45841" lon="6.81937">
        <ele>2982</ele>
        <time>2021-02-25T12:29:54.048Z</time>
      </trkpt>
      <trkpt lat="45.45803" lon="6.81831">
        <ele>2995</ele>
        <time>2021-02-25T12:31:49.511Z</time>
      </trkpt>
      <trkpt lat="45.45841" lon="6.81937">
        <ele>2982</ele>
        <time>2021-02-25T12:34:03.205Z</time>
      </trkpt>
      <trkpt lat="45.4586" lon="6.82032">
        <ele>2971</ele>
        <time>2021-02-25T12:35:39.533Z</time>
      </trkpt>
      <trkpt lat="45.45896" lon="6.82113">
        <ele>2981</ele>
        <time>2021-02-25T12:37:16.025Z</time>
      </trkpt>
      <trkpt lat="45.45953" lon="6.82268">
        <ele>2975</ele>
        <time>2021-02-25T12:40:13.470Z</time>
      </trkpt>
      <trkpt lat="45.45951" lon="6.82329">
        <ele>2966</ele>
        <time>2021-02-25T12:42:02.688Z</time>
      </trkpt>
      <trkpt lat="45.45931" lon="6.82411">
        <ele>2942</ele>
        <time>2021-02-25T12:46:05.977Z</time>
      </trkpt>
      <trkpt lat="45.45949" lon="6.82464">
        <ele>2915</ele>
        <time>2021-02-25T12:49:42.862Z</time>
      </trkpt>
      <trkpt lat="45.45952" lon="6.82534">
        <ele>2882</ele>
        <time>2021-02-25T12:53:46.393Z</time>
      </trkpt>
      <trkpt lat="45.45966" lon="6.82573">
        <ele>2866</ele>
        <time>2021-02-25T12:55:41.093Z</time>
      </trkpt>
      <trkpt lat="45.45971" lon="6.8262">
        <ele>2852</ele>
        <time>2021-02-25T12:57:24.662Z</time>
      </trkpt>
      <trkpt lat="45.45989" lon="6.8266">
        <ele>2840</ele>
        <time>2021-02-25T12:58:59.723Z</time>
      </trkpt>
      <trkpt lat="45.46011" lon="6.82669">
        <ele>2832</ele>
        <time>2021-02-25T13:00:20.239Z</time>
      </trkpt>
      <trkpt lat="45.46022" lon="6.82682">
        <ele>2827</ele>
        <time>2021-02-25T13:01:09.690Z</time>
      </trkpt>
      <trkpt lat="45.46039" lon="6.82782">
        <ele>2792</ele>
        <time>2021-02-25T13:06:18.312Z</time>
      </trkpt>
      <trkpt lat="45.46032" lon="6.82863">
        <ele>2758</ele>
        <time>2021-02-25T13:08:56.175Z</time>
      </trkpt>
      <trkpt lat="45.45976" lon="6.82924">
        <ele>2748</ele>
        <time>2021-02-25T13:10:35.925Z</time>
      </trkpt>
      <trkpt lat="45.45942" lon="6.82937">
        <ele>2750</ele>
        <time>2021-02-25T13:11:23.757Z</time>
      </trkpt>
      <trkpt lat="45.4591" lon="6.82939">
        <ele>2748</ele>
        <time>2021-02-25T13:12:17.841Z</time>
      </trkpt>
      <trkpt lat="45.4584" lon="6.82968">
        <ele>2732</ele>
        <time>2021-02-25T13:14:26.360Z</time>
      </trkpt>
      <trkpt lat="45.45808" lon="6.83031">
        <ele>2724</ele>
        <time>2021-02-25T13:16:20.299Z</time>
      </trkpt>
      <trkpt lat="45.45777" lon="6.83149">
        <ele>2696</ele>
        <time>2021-02-25T13:19:03.822Z</time>
      </trkpt>
      <trkpt lat="45.45728" lon="6.83192">
        <ele>2694</ele>
        <time>2021-02-25T13:20:31.490Z</time>
      </trkpt>
      <trkpt lat="45.45672" lon="6.83241">
        <ele>2703</ele>
        <time>2021-02-25T13:22:05.593Z</time>
      </trkpt>
      <trkpt lat="45.4563" lon="6.83341">
        <ele>2696</ele>
        <time>2021-02-25T13:24:26.053Z</time>
      </trkpt>
      <trkpt lat="45.45612" lon="6.83556">
        <ele>2661</ele>
        <time>2021-02-25T13:29:26.977Z</time>
      </trkpt>
      <trkpt lat="45.45544" lon="6.83542">
        <ele>2645</ele>
        <time>2021-02-25T13:31:04.777Z</time>
      </trkpt>
      <trkpt lat="45.45441" lon="6.83433">
        <ele>2646</ele>
        <time>2021-02-25T13:34:01.413Z</time>
      </trkpt>
      <trkpt lat="45.45386" lon="6.83325">
        <ele>2634</ele>
        <time>2021-02-25T13:36:24.148Z</time>
      </trkpt>
      <trkpt lat="45.4532" lon="6.83211">
        <ele>2620</ele>
        <time>2021-02-25T13:39:53.848Z</time>
      </trkpt>
      <trkpt lat="45.45255" lon="6.83104">
        <ele>2586</ele>
        <time>2021-02-25T13:44:03.539Z</time>
      </trkpt>
      <trkpt lat="45.45144" lon="6.83079">
        <ele>2553</ele>
        <time>2021-02-25T13:48:35.245Z</time>
      </trkpt>
      <trkpt lat="45.45049" lon="6.83107">
        <ele>2523</ele>
        <time>2021-02-25T13:51:49.966Z</time>
      </trkpt>
      <trkpt lat="45.44867" lon="6.83188">
        <ele>2485</ele>
        <time>2021-02-25T13:57:13.776Z</time>
      </trkpt>
      <trkpt lat="45.44757" lon="6.83207">
        <ele>2470</ele>
        <time>2021-02-25T14:01:03.519Z</time>
      </trkpt>
      <trkpt lat="45.44655" lon="6.83224">
        <ele>2432</ele>
        <time>2021-02-25T14:05:18.186Z</time>
      </trkpt>
      <trkpt lat="45.4457" lon="6.83198">
        <ele>2411</ele>
        <time>2021-02-25T14:07:57.872Z</time>
      </trkpt>
      <trkpt lat="45.44484" lon="6.83135">
        <ele>2395</ele>
        <time>2021-02-25T14:10:24.922Z</time>
      </trkpt>
      <trkpt lat="45.44398" lon="6.83014">
        <ele>2382</ele>
        <time>2021-02-25T14:13:31.645Z</time>
      </trkpt>
      <trkpt lat="45.4432" lon="6.82906">
        <ele>2363</ele>
        <time>2021-02-25T14:17:01.678Z</time>
      </trkpt>
      <trkpt lat="45.44205" lon="6.82752">
        <ele>2323</ele>
        <time>2021-02-25T14:20:41.940Z</time>
      </trkpt>
      <trkpt lat="45.4426" lon="6.82824">
        <ele>2348</ele>
        <time>2021-02-25T14:22:25.713Z</time>
      </trkpt>
      <trkpt lat="45.44164" lon="6.82692">
        <ele>2310</ele>
        <time>2021-02-25T14:26:58.603Z</time>
      </trkpt>
      <trkpt lat="45.44116" lon="6.82638">
        <ele>2301</ele>
        <time>2021-02-25T14:28:28.986Z</time>
      </trkpt>
      <trkpt lat="45.44091" lon="6.82599">
        <ele>2299</ele>
        <time>2021-02-25T14:29:19.823Z</time>
      </trkpt>
      <trkpt lat="45.44069" lon="6.82537">
        <ele>2297</ele>
        <time>2021-02-25T14:30:28.015Z</time>
      </trkpt>
      <trkpt lat="45.44067" lon="6.82468">
        <ele>2295</ele>
        <time>2021-02-25T14:31:35.087Z</time>
      </trkpt>
      <trkpt lat="45.44048" lon="6.82363">
        <ele>2290</ele>
        <time>2021-02-25T14:33:22.395Z</time>
      </trkpt>
      <trkpt lat="45.44006" lon="6.8226">
        <ele>2284</ele>
        <time>2021-02-25T14:35:19.908Z</time>
      </trkpt>
      <trkpt lat="45.43991" lon="6.822">
        <ele>2281</ele>
        <time>2021-02-25T14:36:23.181Z</time>
      </trkpt>
      <trkpt lat="45.43981" lon="6.82189">
        <ele>2280</ele>
        <time>2021-02-25T14:36:40.129Z</time>
      </trkpt>
      <trkpt lat="45.43985" lon="6.82153">
        <ele>2278</ele>
        <time>2021-02-25T14:37:18.517Z</time>
      </trkpt>
      <trkpt lat="45.43982" lon="6.82138">
        <ele>2277</ele>
        <time>2021-02-25T14:37:34.974Z</time>
      </trkpt>
      <trkpt lat="45.43957" lon="6.82104">
        <ele>2272</ele>
        <time>2021-02-25T14:38:27.962Z</time>
      </trkpt>
      <trkpt lat="45.43934" lon="6.82056">
        <ele>2267</ele>
        <time>2021-02-25T14:39:28.513Z</time>
      </trkpt>
      <trkpt lat="45.43922" lon="6.8198">
        <ele>2261</ele>
        <time>2021-02-25T14:40:48.276Z</time>
      </trkpt>
      <trkpt lat="45.43908" lon="6.81947">
        <ele>2259</ele>
        <time>2021-02-25T14:41:27.436Z</time>
      </trkpt>
      <trkpt lat="45.43888" lon="6.81861">
        <ele>2254</ele>
        <time>2021-02-25T14:42:58.085Z</time>
      </trkpt>
      <trkpt lat="45.4385" lon="6.81849">
        <ele>2251</ele>
        <time>2021-02-25T14:43:53.678Z</time>
      </trkpt>
      <trkpt lat="45.43839" lon="6.81841">
        <ele>2250</ele>
        <time>2021-02-25T14:44:11.173Z</time>
      </trkpt>
      <trkpt lat="45.43791" lon="6.81772">
        <ele>2244</ele>
        <time>2021-02-25T14:45:48.971Z</time>
      </trkpt>
      <trkpt lat="45.43729" lon="6.8172">
        <ele>2238</ele>
        <time>2021-02-25T14:47:30.501Z</time>
      </trkpt>
      <trkpt lat="45.43726" lon="6.81704">
        <ele>2238</ele>
        <time>2021-02-25T14:47:47.240Z</time>
      </trkpt>
      <trkpt lat="45.43729" lon="6.81666">
        <ele>2236</ele>
        <time>2021-02-25T14:48:26.232Z</time>
      </trkpt>
      <trkpt lat="45.43725" lon="6.81657">
        <ele>2235</ele>
        <time>2021-02-25T14:48:37.071Z</time>
      </trkpt>
      <trkpt lat="45.43696" lon="6.81632">
        <ele>2232</ele>
        <time>2021-02-25T14:49:27.767Z</time>
      </trkpt>
      <trkpt lat="45.43679" lon="6.8159">
        <ele>2227</ele>
        <time>2021-02-25T14:50:22.941Z</time>
      </trkpt>
      <trkpt lat="45.43651" lon="6.81557">
        <ele>2221</ele>
        <time>2021-02-25T14:51:28.689Z</time>
      </trkpt>
      <trkpt lat="45.43645" lon="6.81496">
        <ele>2211</ele>
        <time>2021-02-25T14:52:48.685Z</time>
      </trkpt>
      <trkpt lat="45.43628" lon="6.81445">
        <ele>2204</ele>
        <time>2021-02-25T14:53:47.079Z</time>
      </trkpt>
      <trkpt lat="45.43629" lon="6.81428">
        <ele>2203</ele>
        <time>2021-02-25T14:54:04.686Z</time>
      </trkpt>
      <trkpt lat="45.43608" lon="6.81373">
        <ele>2202</ele>
        <time>2021-02-25T14:55:04.894Z</time>
      </trkpt>
      <trkpt lat="45.43584" lon="6.81342">
        <ele>2202</ele>
        <time>2021-02-25T14:55:49.677Z</time>
      </trkpt>
      <trkpt lat="45.43588" lon="6.81305">
        <ele>2201</ele>
        <time>2021-02-25T14:56:27.209Z</time>
      </trkpt>
      <trkpt lat="45.43605" lon="6.81281">
        <ele>2198</ele>
        <time>2021-02-25T14:57:06.722Z</time>
      </trkpt>
      <trkpt lat="45.43605" lon="6.81237">
        <ele>2192</ele>
        <time>2021-02-25T14:58:10.952Z</time>
      </trkpt>
      <trkpt lat="45.43596" lon="6.81184">
        <ele>2181</ele>
        <time>2021-02-25T14:59:48.637Z</time>
      </trkpt>
      <trkpt lat="45.43572" lon="6.81122">
        <ele>2164</ele>
        <time>2021-02-25T15:01:50.964Z</time>
      </trkpt>
      <trkpt lat="45.43542" lon="6.81069">
        <ele>2151</ele>
        <time>2021-02-25T15:03:20.683Z</time>
      </trkpt>
      <trkpt lat="45.43504" lon="6.81022">
        <ele>2143</ele>
        <time>2021-02-25T15:04:39.645Z</time>
      </trkpt>
      <trkpt lat="45.43477" lon="6.81021">
        <ele>2140</ele>
        <time>2021-02-25T15:05:18.796Z</time>
      </trkpt>
      <trkpt lat="45.43458" lon="6.81036">
        <ele>2137</ele>
        <time>2021-02-25T15:05:53.033Z</time>
      </trkpt>
      <trkpt lat="45.4345" lon="6.81063">
        <ele>2135</ele>
        <time>2021-02-25T15:06:24.367Z</time>
      </trkpt>
      <trkpt lat="45.43451" lon="6.81114">
        <ele>2129</ele>
        <time>2021-02-25T15:07:21.714Z</time>
      </trkpt>
      <trkpt lat="45.4344" lon="6.81172">
        <ele>2123</ele>
        <time>2021-02-25T15:08:24.860Z</time>
      </trkpt>
      <trkpt lat="45.43455" lon="6.81263">
        <ele>2116</ele>
        <time>2021-02-25T15:10:02.190Z</time>
      </trkpt>
      <trkpt lat="45.4345" lon="6.81343">
        <ele>2110</ele>
        <time>2021-02-25T15:11:25.214Z</time>
      </trkpt>
      <trkpt lat="45.43453" lon="6.81353">
        <ele>2110</ele>
        <time>2021-02-25T15:11:36.850Z</time>
      </trkpt>
      <trkpt lat="45.43449" lon="6.81433">
        <ele>2103</ele>
        <time>2021-02-25T15:13:10.082Z</time>
      </trkpt>
      <trkpt lat="45.4344" lon="6.81446">
        <ele>2101</ele>
        <time>2021-02-25T15:13:30.493Z</time>
      </trkpt>
      <trkpt lat="45.43382" lon="6.81487">
        <ele>2088</ele>
        <time>2021-02-25T15:15:43.593Z</time>
      </trkpt>
      <trkpt lat="45.4335" lon="6.81493">
        <ele>2077</ele>
        <time>2021-02-25T15:17:28.750Z</time>
      </trkpt>
      <trkpt lat="45.43305" lon="6.81471">
        <ele>2056</ele>
        <time>2021-02-25T15:20:09.486Z</time>
      </trkpt>
      <trkpt lat="45.43264" lon="6.81441">
        <ele>2037</ele>
        <time>2021-02-25T15:22:15.264Z</time>
      </trkpt>
      <trkpt lat="45.43228" lon="6.81394">
        <ele>2024</ele>
        <time>2021-02-25T15:23:55.184Z</time>
      </trkpt>
      <trkpt lat="45.43205" lon="6.81303">
        <ele>2008</ele>
        <time>2021-02-25T15:26:10.422Z</time>
      </trkpt>
      <trkpt lat="45.43195" lon="6.81208">
        <ele>1993</ele>
        <time>2021-02-25T15:28:04.383Z</time>
      </trkpt>
      <trkpt lat="45.432" lon="6.81151">
        <ele>1989</ele>
        <time>2021-02-25T15:29:02.435Z</time>
      </trkpt>
      <trkpt lat="45.4322" lon="6.81086">
        <ele>1986</ele>
        <time>2021-02-25T15:30:12.443Z</time>
      </trkpt>
      <trkpt lat="45.43218" lon="6.81072">
        <ele>1986</ele>
        <time>2021-02-25T15:30:25.780Z</time>
      </trkpt>
      <trkpt lat="45.43246" lon="6.81005">
        <ele>1981</ele>
        <time>2021-02-25T15:31:47.540Z</time>
      </trkpt>
      <trkpt lat="45.43252" lon="6.8098">
        <ele>1979</ele>
        <time>2021-02-25T15:32:15.006Z</time>
      </trkpt>
      <trkpt lat="45.43272" lon="6.8095">
        <ele>1975</ele>
        <time>2021-02-25T15:33:01.021Z</time>
      </trkpt>
      <trkpt lat="45.43283" lon="6.80924">
        <ele>1972</ele>
        <time>2021-02-25T15:33:36.656Z</time>
      </trkpt>
      <trkpt lat="45.43297" lon="6.80909">
        <ele>1969</ele>
        <time>2021-02-25T15:34:06.978Z</time>
      </trkpt>
      <trkpt lat="45.43316" lon="6.80776">
        <ele>1950</ele>
        <time>2021-02-25T15:36:54.908Z</time>
      </trkpt>
      <trkpt lat="45.43336" lon="6.8073">
        <ele>1944</ele>
        <time>2021-02-25T15:37:55.652Z</time>
      </trkpt>
      <trkpt lat="45.43354" lon="6.80706">
        <ele>1940</ele>
        <time>2021-02-25T15:38:34.504Z</time>
      </trkpt>
      <trkpt lat="45.43361" lon="6.80644">
        <ele>1935</ele>
        <time>2021-02-25T15:39:40.837Z</time>
      </trkpt>
      <trkpt lat="45.43368" lon="6.80612">
        <ele>1932</ele>
        <time>2021-02-25T15:40:16.348Z</time>
      </trkpt>
      <trkpt lat="45.43365" lon="6.80589">
        <ele>1931</ele>
        <time>2021-02-25T15:40:40.314Z</time>
      </trkpt>
      <trkpt lat="45.43393" lon="6.80497">
        <ele>1922</ele>
        <time>2021-02-25T15:42:26.448Z</time>
      </trkpt>
      <trkpt lat="45.43379" lon="6.80463">
        <ele>1919</ele>
        <time>2021-02-25T15:43:07.784Z</time>
      </trkpt>
      <trkpt lat="45.43388" lon="6.80407">
        <ele>1914</ele>
        <time>2021-02-25T15:44:08.424Z</time>
      </trkpt>
      <trkpt lat="45.43385" lon="6.80371">
        <ele>1911</ele>
        <time>2021-02-25T15:44:45.767Z</time>
      </trkpt>
      <trkpt lat="45.43418" lon="6.80291">
        <ele>1906</ele>
        <time>2021-02-25T15:46:17.002Z</time>
      </trkpt>
      <trkpt lat="45.43444" lon="6.80265">
        <ele>1904</ele>
        <time>2021-02-25T15:47:04.861Z</time>
      </trkpt>
      <trkpt lat="45.43459" lon="6.80189">
        <ele>1896</ele>
        <time>2021-02-25T15:48:34.850Z</time>
      </trkpt>
      <trkpt lat="45.43472" lon="6.80149">
        <ele>1890</ele>
        <time>2021-02-25T15:49:28.912Z</time>
      </trkpt>
      <trkpt lat="45.43466" lon="6.80129">
        <ele>1887</ele>
        <time>2021-02-25T15:49:53.879Z</time>
      </trkpt>
      <trkpt lat="45.43475" lon="6.80115">
        <ele>1885</ele>
        <time>2021-02-25T15:50:12.168Z</time>
      </trkpt>
      <trkpt lat="45.43477" lon="6.80093">
        <ele>1884</ele>
        <time>2021-02-25T15:50:33.817Z</time>
      </trkpt>
      <trkpt lat="45.43508" lon="6.8">
        <ele>1883</ele>
        <time>2021-02-25T15:52:13.941Z</time>
      </trkpt>
      <trkpt lat="45.4353" lon="6.7996">
        <ele>1884</ele>
        <time>2021-02-25T15:53:03.001Z</time>
      </trkpt>
      <trkpt lat="45.43522" lon="6.79865">
        <ele>1880</ele>
        <time>2021-02-25T15:54:39.384Z</time>
      </trkpt>
      <trkpt lat="45.4353" lon="6.79842">
        <ele>1878</ele>
        <time>2021-02-25T15:55:04.687Z</time>
      </trkpt>
      <trkpt lat="45.43548" lon="6.79816">
        <ele>1875</ele>
        <time>2021-02-25T15:55:40.447Z</time>
      </trkpt>
      <trkpt lat="45.43556" lon="6.79789">
        <ele>1873</ele>
        <time>2021-02-25T15:56:08.475Z</time>
      </trkpt>
      <trkpt lat="45.43673" lon="6.79613">
        <ele>1869</ele>
        <time>2021-02-25T16:00:04.026Z</time>
      </trkpt>
      <trkpt lat="45.43692" lon="6.79608">
        <ele>1867</ele>
        <time>2021-02-25T16:00:30.474Z</time>
      </trkpt>
      <trkpt lat="45.43696" lon="6.79585">
        <ele>1865</ele>
        <time>2021-02-25T16:00:55.493Z</time>
      </trkpt>
      <trkpt lat="45.43719" lon="6.79535">
        <ele>1859</ele>
        <time>2021-02-25T16:01:58.507Z</time>
      </trkpt>
      <trkpt lat="45.43732" lon="6.7949">
        <ele>1856</ele>
        <time>2021-02-25T16:02:48.861Z</time>
      </trkpt>
      <trkpt lat="45.43737" lon="6.79486">
        <ele>1856</ele>
        <time>2021-02-25T16:02:57.410Z</time>
      </trkpt>
      <trkpt lat="45.43744" lon="6.79466">
        <ele>1854</ele>
        <time>2021-02-25T16:03:20.056Z</time>
      </trkpt>
      <trkpt lat="45.43769" lon="6.79438">
        <ele>1850</ele>
        <time>2021-02-25T16:04:15.196Z</time>
      </trkpt>
      <trkpt lat="45.43761" lon="6.79439">
        <ele>1848</ele>
        <time>2021-02-25T16:04:31.126Z</time>
      </trkpt>
      <trkpt lat="45.43766" lon="6.79433">
        <ele>1847</ele>
        <time>2021-02-25T16:04:44.160Z</time>
      </trkpt>
      <trkpt lat="45.43763" lon="6.79413">
        <ele>1843</ele>
        <time>2021-02-25T16:05:15.961Z</time>
      </trkpt>
      <trkpt lat="45.43791" lon="6.79377">
        <ele>1832</ele>
        <time>2021-02-25T16:06:49.381Z</time>
      </trkpt>
      <trkpt lat="45.4382" lon="6.79355">
        <ele>1821</ele>
        <time>2021-02-25T16:08:08.114Z</time>
      </trkpt>
      <trkpt lat="45.43833" lon="6.79316">
        <ele>1813</ele>
        <time>2021-02-25T16:09:12.304Z</time>
      </trkpt>
      <trkpt lat="45.43846" lon="6.79308">
        <ele>1810</ele>
        <time>2021-02-25T16:09:39.235Z</time>
      </trkpt>
      <trkpt lat="45.43853" lon="6.79295">
        <ele>1807</ele>
        <time>2021-02-25T16:10:02.705Z</time>
      </trkpt>
      <trkpt lat="45.43842" lon="6.79291">
        <ele>1805</ele>
        <time>2021-02-25T16:10:25.463Z</time>
      </trkpt>
      <trkpt lat="45.4387" lon="6.79248">
        <ele>1795</ele>
        <time>2021-02-25T16:11:48.036Z</time>
      </trkpt>
      <trkpt lat="45.43891" lon="6.79243">
        <ele>1790</ele>
        <time>2021-02-25T16:12:31.144Z</time>
      </trkpt>
      <trkpt lat="45.43914" lon="6.79214">
        <ele>1783</ele>
        <time>2021-02-25T16:13:34.015Z</time>
      </trkpt>
      <trkpt lat="45.43929" lon="6.79223">
        <ele>1779</ele>
        <time>2021-02-25T16:14:07.211Z</time>
      </trkpt>
      <trkpt lat="45.43943" lon="6.79207">
        <ele>1774</ele>
        <time>2021-02-25T16:14:43.807Z</time>
      </trkpt>
      <trkpt lat="45.43938" lon="6.79204">
        <ele>1773</ele>
        <time>2021-02-25T16:14:54.873Z</time>
      </trkpt>
      <trkpt lat="45.43939" lon="6.79192">
        <ele>1771</ele>
        <time>2021-02-25T16:15:10.973Z</time>
      </trkpt>
      <trkpt lat="45.4393" lon="6.79197">
        <ele>1769</ele>
        <time>2021-02-25T16:15:31.537Z</time>
      </trkpt>
      <trkpt lat="45.43936" lon="6.79173">
        <ele>1765</ele>
        <time>2021-02-25T16:16:07.283Z</time>
      </trkpt>
      <trkpt lat="45.43937" lon="6.79141">
        <ele>1759</ele>
        <time>2021-02-25T16:16:59.461Z</time>
      </trkpt>
      <trkpt lat="45.43911" lon="6.79178">
        <ele>1748</ele>
        <time>2021-02-25T16:18:42.187Z</time>
      </trkpt>
      <trkpt lat="45.43905" lon="6.79176">
        <ele>1746</ele>
        <time>2021-02-25T16:18:59.876Z</time>
      </trkpt>
      <trkpt lat="45.43908" lon="6.79161">
        <ele>1742</ele>
        <time>2021-02-25T16:19:29.958Z</time>
      </trkpt>
      <trkpt lat="45.43896" lon="6.79119">
        <ele>1729</ele>
        <time>2021-02-25T16:21:10.877Z</time>
      </trkpt>
      <trkpt lat="45.43875" lon="6.79077">
        <ele>1715</ele>
        <time>2021-02-25T16:22:23.224Z</time>
      </trkpt>
      <trkpt lat="45.43876" lon="6.79063">
        <ele>1713</ele>
        <time>2021-02-25T16:22:43.287Z</time>
      </trkpt>
      <trkpt lat="45.43866" lon="6.79062">
        <ele>1710</ele>
        <time>2021-02-25T16:23:03.118Z</time>
      </trkpt>
      <trkpt lat="45.43898" lon="6.78999">
        <ele>1703</ele>
        <time>2021-02-25T16:24:25.425Z</time>
      </trkpt>
      <trkpt lat="45.43954" lon="6.78912">
        <ele>1694</ele>
        <time>2021-02-25T16:26:20.908Z</time>
      </trkpt>
      <trkpt lat="45.44027" lon="6.78854">
        <ele>1693</ele>
        <time>2021-02-25T16:28:15.573Z</time>
      </trkpt>
      <trkpt lat="45.44153" lon="6.7879">
        <ele>1683</ele>
        <time>2021-02-25T16:31:33.717Z</time>
      </trkpt>
      <trkpt lat="45.44223" lon="6.78709">
        <ele>1668</ele>
        <time>2021-02-25T16:33:56.596Z</time>
      </trkpt>
      <trkpt lat="45.44269" lon="6.78641">
        <ele>1659</ele>
        <time>2021-02-25T16:35:35.312Z</time>
      </trkpt>
      <trkpt lat="45.44314" lon="6.78598">
        <ele>1655</ele>
        <time>2021-02-25T16:36:49.370Z</time>
      </trkpt>
      <trkpt lat="45.44376" lon="6.78562">
        <ele>1653</ele>
        <time>2021-02-25T16:38:22.145Z</time>
      </trkpt>
      <trkpt lat="45.44443" lon="6.78539">
        <ele>1649</ele>
        <time>2021-02-25T16:39:58.226Z</time>
      </trkpt>
      <trkpt lat="45.4448" lon="6.78519">
        <ele>1646</ele>
        <time>2021-02-25T16:40:53.493Z</time>
      </trkpt>
      <trkpt lat="45.44525" lon="6.7852">
        <ele>1644</ele>
        <time>2021-02-25T16:42:02.321Z</time>
      </trkpt>
      <trkpt lat="45.44618" lon="6.78478">
        <ele>1627</ele>
        <time>2021-02-25T16:45:22.725Z</time>
      </trkpt>
      <trkpt lat="45.44625" lon="6.7842">
        <ele>1610</ele>
        <time>2021-02-25T16:46:55.306Z</time>
      </trkpt>
      <trkpt lat="45.44623" lon="6.78404">
        <ele>1606</ele>
        <time>2021-02-25T16:47:22.057Z</time>
      </trkpt>
      <trkpt lat="45.44658" lon="6.78353">
        <ele>1598</ele>
        <time>2021-02-25T16:48:36.076Z</time>
      </trkpt>
      <trkpt lat="45.44684" lon="6.78341">
        <ele>1598</ele>
        <time>2021-02-25T16:49:14.114Z</time>
      </trkpt>
      <trkpt lat="45.44697" lon="6.78326">
        <ele>1599</ele>
        <time>2021-02-25T16:49:37.061Z</time>
      </trkpt>
      <trkpt lat="45.44752" lon="6.78282">
        <ele>1591</ele>
        <time>2021-02-25T16:51:22.933Z</time>
      </trkpt>
      <trkpt lat="45.44756" lon="6.78262">
        <ele>1587</ele>
        <time>2021-02-25T16:51:47.691Z</time>
      </trkpt>
      <trkpt lat="45.44766" lon="6.78255">
        <ele>1584</ele>
        <time>2021-02-25T16:52:08.197Z</time>
      </trkpt>
      <trkpt lat="45.4477" lon="6.78234">
        <ele>1580</ele>
        <time>2021-02-25T16:52:36.146Z</time>
      </trkpt>
      <trkpt lat="45.44758" lon="6.78172">
        <ele>1573</ele>
        <time>2021-02-25T16:53:38.602Z</time>
      </trkpt>
      <trkpt lat="45.44847" lon="6.78077">
        <ele>1570</ele>
        <time>2021-02-25T16:56:12.475Z</time>
      </trkpt>
      <trkpt lat="45.44859" lon="6.78051">
        <ele>1570</ele>
        <time>2021-02-25T16:56:42.856Z</time>
      </trkpt>
      <trkpt lat="45.44862" lon="6.78033">
        <ele>1570</ele>
        <time>2021-02-25T16:57:00.213Z</time>
      </trkpt>
      <trkpt lat="45.44855" lon="6.78006">
        <ele>1569</ele>
        <time>2021-02-25T16:57:28.249Z</time>
      </trkpt>
    </trkseg>
  </trk>
</gpx>